Time;durP1;ratioP1;P1;durP2;ratioP2;P2;SDS_P1;SDS_P2;PMS_P1;PMS_P2;Temp;Humidity;BMP_temperature;BMP_pressure;BME280_temperature;BME280_humidity;BME280_pressure;Samples;Min_cycle;Max_cycle;Signal;HPM_P1;HPM_P2
2021/09/08 00:01:57;;;;;;;14.88;12.05;;;15.90;19.20;;;;;;5081403;28;20048;-71
2021/09/08 00:04:26;;;;;;;13.98;11.75;;;15.80;20.60;;;;;;5081012;28;20125;-70
2021/09/08 00:06:56;;;;;;;14.70;11.65;;;15.80;20.70;;;;;;5073890;28;20743;-71
2021/09/08 00:09:28;;;;;;;13.55;11.35;;;15.80;21.40;;;;;;5061984;28;20408;-71
2021/09/08 00:11:56;;;;;;;13.30;11.40;;;15.80;21.90;;;;;;5078715;28;20552;-70
2021/09/08 00:14:24;;;;;;;17.70;12.80;;;15.80;21.90;;;;;;5079564;28;20048;-71
2021/09/08 00:16:59;;;;;;;15.43;12.15;;;15.80;22.00;;;;;;5059258;28;20058;-70
2021/09/08 00:19:27;;;;;;;14.52;11.98;;;15.80;21.80;;;;;;5083342;28;20518;-71
2021/09/08 00:21:56;;;;;;;15.95;12.95;;;15.80;22.10;;;;;;5082404;28;20074;-70
2021/09/08 00:24:24;;;;;;;14.65;12.05;;;15.70;22.00;;;;;;5086314;28;20120;-71
2021/09/08 00:26:54;;;;;;;18.77;13.07;;;15.70;22.10;;;;;;5042243;28;20059;-71
2021/09/08 00:29:22;;;;;;;16.23;12.07;;;15.70;22.40;;;;;;5078632;28;20048;-70
2021/09/08 00:31:50;;;;;;;15.93;12.05;;;15.70;21.70;;;;;;5080786;28;20090;-71
2021/09/08 00:34:18;;;;;;;15.73;12.63;;;15.70;21.50;;;;;;5080208;28;20132;-70
2021/09/08 00:36:46;;;;;;;17.00;11.85;;;15.70;21.20;;;;;;5058605;28;20047;-71
2021/09/08 00:39:16;;;;;;;17.65;12.52;;;15.70;21.40;;;;;;5069565;28;20079;-71
2021/09/08 00:41:44;;;;;;;16.35;11.73;;;15.70;21.80;;;;;;5082230;28;20078;-71
2021/09/08 00:44:14;;;;;;;15.32;12.57;;;15.70;21.70;;;;;;5077309;28;20109;-71
2021/09/08 00:46:44;;;;;;;16.63;12.13;;;15.60;22.30;;;;;;5077549;28;20129;-70
2021/09/08 00:49:13;;;;;;;16.98;11.95;;;15.50;22.40;;;;;;5059735;28;20037;-71
2021/09/08 00:51:41;;;;;;;14.13;11.98;;;15.50;22.30;;;;;;5064902;28;20096;-71
2021/09/08 00:54:12;;;;;;;16.80;12.32;;;15.40;23.20;;;;;;5075592;28;20660;-71
2021/09/08 00:56:44;;;;;;;16.20;11.95;;;15.50;22.80;;;;;;5078125;28;20102;-71
2021/09/08 00:59:12;;;;;;;16.83;12.02;;;15.60;20.10;;;;;;5076193;28;20052;-71
2021/09/08 01:01:40;;;;;;;16.17;12.00;;;15.70;18.70;;;;;;5078970;28;20048;-71
2021/09/08 01:04:09;;;;;;;14.93;11.40;;;15.70;19.50;;;;;;5079990;28;20048;-71
2021/09/08 01:06:37;;;;;;;16.27;12.15;;;15.70;18.90;;;;;;5078222;28;20040;-70
2021/09/08 01:09:06;;;;;;;16.52;11.30;;;15.60;18.90;;;;;;5072227;28;20076;-70
2021/09/08 01:11:35;;;;;;;15.77;11.80;;;15.60;19.20;;;;;;5080774;28;20146;-70
2021/09/08 01:14:04;;;;;;;15.55;12.23;;;15.50;19.70;;;;;;5066378;28;20044;-70
2021/09/08 01:16:33;;;;;;;17.30;11.75;;;15.50;20.00;;;;;;5079524;28;20051;-71
2021/09/08 01:19:01;;;;;;;13.07;11.23;;;15.40;20.40;;;;;;5071655;28;20094;-73
2021/09/08 01:21:29;;;;;;;15.18;11.55;;;15.40;21.00;;;;;;5082194;28;20118;-70
2021/09/08 01:24:05;;;;;;;15.65;11.75;;;15.50;20.60;;;;;;5080763;28;20098;-71
2021/09/08 01:26:34;;;;;;;14.30;11.70;;;15.40;20.10;;;;;;5080054;28;20056;-70
2021/09/08 01:29:03;;;;;;;13.43;10.88;;;15.40;20.40;;;;;;5074702;28;20044;-71
2021/09/08 01:31:31;;;;;;;18.15;12.07;;;15.30;21.20;;;;;;5081588;28;21762;-71
2021/09/08 01:33:59;;;;;;;15.60;11.45;;;15.30;21.50;;;;;;5082412;28;20154;-71
2021/09/08 01:36:27;;;;;;;18.08;13.05;;;15.30;22.20;;;;;;5078550;28;20156;-69
2021/09/08 01:38:56;;;;;;;20.45;12.73;;;15.30;22.10;;;;;;5073532;28;20059;-69
2021/09/08 01:41:25;;;;;;;16.17;11.40;;;15.30;22.10;;;;;;5075452;28;20144;-69
2021/09/08 01:43:53;;;;;;;15.90;12.20;;;15.30;22.00;;;;;;5083584;28;20051;-69
2021/09/08 01:46:22;;;;;;;18.40;12.57;;;15.30;22.10;;;;;;5079223;28;20495;-70
2021/09/08 01:48:50;;;;;;;15.90;12.27;;;15.30;22.20;;;;;;5072354;28;20128;-70
2021/09/08 01:51:18;;;;;;;14.52;11.43;;;15.30;22.60;;;;;;5078772;28;20503;-70
2021/09/08 01:53:46;;;;;;;14.60;12.07;;;15.30;21.90;;;;;;5075362;28;20557;-70
2021/09/08 01:56:15;;;;;;;15.15;11.90;;;15.30;20.70;;;;;;5074463;28;20052;-70
2021/09/08 01:58:45;;;;;;;15.38;11.57;;;15.40;20.60;;;;;;5073036;28;20712;-69
2021/09/08 02:01:13;;;;;;;13.57;11.63;;;15.40;20.30;;;;;;5075689;28;20075;-70
2021/09/08 02:03:41;;;;;;;14.95;11.75;;;15.30;19.20;;;;;;5082962;28;20087;-70
2021/09/08 02:06:23;;;;;;;17.58;12.23;;;15.40;18.70;;;;;;5074745;28;20048;-70
2021/09/08 02:08:51;;;;;;;14.60;12.13;;;15.40;18.30;;;;;;5071917;28;20127;-70
2021/09/08 02:11:20;;;;;;;15.43;11.88;;;15.40;18.20;;;;;;5073841;28;20048;-70
2021/09/08 02:13:50;;;;;;;12.68;11.25;;;15.40;18.60;;;;;;5082254;28;20101;-70
2021/09/08 02:16:21;;;;;;;14.70;11.55;;;15.40;18.20;;;;;;5075408;28;20153;-70
2021/09/08 02:18:50;;;;;;;19.30;12.15;;;15.30;18.30;;;;;;5071596;28;20388;-69
2021/09/08 02:21:19;;;;;;;14.40;12.00;;;15.30;18.70;;;;;;5081267;28;20155;-70
2021/09/08 02:23:48;;;;;;;16.00;12.23;;;15.30;18.70;;;;;;5076456;28;20399;-72
2021/09/08 02:26:16;;;;;;;15.73;11.57;;;15.20;18.60;;;;;;5057625;28;20075;-69
2021/09/08 02:28:45;;;;;;;14.68;11.18;;;15.20;18.60;;;;;;5057710;28;20592;-70
2021/09/08 02:31:14;;;;;;;15.50;11.43;;;15.20;18.60;;;;;;5082198;28;20082;-71
2021/09/08 02:33:42;;;;;;;14.80;11.65;;;15.20;18.60;;;;;;5074510;28;20559;-70
2021/09/08 02:36:14;;;;;;;15.93;11.77;;;15.20;18.60;;;;;;5078348;28;20129;-70
2021/09/08 02:38:42;;;;;;;14.63;11.38;;;15.20;18.60;;;;;;5075038;28;20040;-70
2021/09/08 02:41:10;;;;;;;16.10;11.65;;;15.10;18.80;;;;;;5083084;28;20131;-70
2021/09/08 02:43:38;;;;;;;14.82;12.32;;;15.20;19.00;;;;;;5082586;28;20040;-70
2021/09/08 02:46:06;;;;;;;16.52;12.43;;;15.10;19.20;;;;;;5078996;28;20106;-70
2021/09/08 02:48:37;;;;;;;17.20;11.68;;;15.00;19.90;;;;;;5072598;28;20501;-70
2021/09/08 02:51:05;;;;;;;16.02;12.55;;;15.00;19.70;;;;;;5076179;28;20135;-70
2021/09/08 02:53:34;;;;;;;15.90;12.50;;;14.90;20.10;;;;;;5080868;28;20051;-70
2021/09/08 02:56:02;;;;;;;16.48;11.73;;;14.90;20.60;;;;;;5076536;28;20072;-70
2021/09/08 02:58:31;;;;;;;16.85;11.85;;;14.80;21.30;;;;;;5070296;28;20525;-70
2021/09/08 03:00:59;;;;;;;14.52;12.25;;;14.80;21.80;;;;;;5080700;28;20097;-70
2021/09/08 03:03:27;;;;;;;15.65;12.50;;;14.70;21.80;;;;;;5085036;28;20684;-70
2021/09/08 03:05:57;;;;;;;15.70;12.32;;;14.70;22.60;;;;;;5081008;28;20044;-70
2021/09/08 03:08:25;;;;;;;17.30;12.68;;;14.70;22.90;;;;;;5074998;28;20584;-70
2021/09/08 03:10:53;;;;;;;15.15;12.35;;;14.50;23.50;;;;;;5083194;28;20124;-70
2021/09/08 03:13:22;;;;;;;19.70;12.93;;;14.50;24.30;;;;;;5081638;28;20064;-70
2021/09/08 03:15:50;;;;;;;15.20;12.88;;;14.40;25.00;;;;;;5082119;28;20044;-70
2021/09/08 03:18:18;;;;;;;15.15;12.20;;;14.40;25.70;;;;;;5061716;28;20059;-70
2021/09/08 03:20:46;;;;;;;19.15;13.07;;;14.40;26.20;;;;;;5061293;28;20515;-70
2021/09/08 03:23:15;;;;;;;16.42;12.88;;;14.30;26.10;;;;;;5057825;28;20053;-70
2021/09/08 03:25:43;;;;;;;14.52;12.52;;;14.20;26.90;;;;;;5058834;28;20049;-70
2021/09/08 03:28:11;;;;;;;15.77;12.43;;;14.20;27.60;;;;;;5058216;28;20095;-70
2021/09/08 03:30:39;;;;;;;15.15;12.55;;;14.10;28.10;;;;;;5063987;28;20037;-70
2021/09/08 03:33:08;;;;;;;16.08;12.65;;;14.10;28.30;;;;;;5065105;28;20044;-70
2021/09/08 03:35:35;;;;;;;17.50;13.93;;;14.00;29.10;;;;;;5065046;28;20059;-70
2021/09/08 03:38:04;;;;;;;15.55;12.82;;;14.00;29.50;;;;;;5059175;28;20071;-70
2021/09/08 03:40:33;;;;;;;19.67;13.20;;;13.90;29.80;;;;;;5061985;28;20128;-70
2021/09/08 03:43:01;;;;;;;17.58;13.50;;;13.90;30.90;;;;;;5062531;28;20110;-70
2021/09/08 03:45:29;;;;;;;18.83;14.52;;;13.90;31.60;;;;;;5063355;28;20064;-71
2021/09/08 03:47:57;;;;;;;17.73;14.32;;;13.90;31.30;;;;;;5056839;28;20542;-71
2021/09/08 03:50:26;;;;;;;17.85;14.00;;;13.80;31.80;;;;;;5059154;28;20040;-70
2021/09/08 03:52:54;;;;;;;18.42;13.77;;;13.80;32.60;;;;;;5060285;28;20094;-70
2021/09/08 03:55:22;;;;;;;16.02;13.18;;;13.70;33.40;;;;;;5061490;28;20083;-71
2021/09/08 03:57:51;;;;;;;18.95;13.90;;;13.70;33.80;;;;;;5040003;28;20090;-70
2021/09/08 04:00:19;;;;;;;15.93;13.02;;;13.60;34.50;;;;;;5083068;28;20131;-70
2021/09/08 04:02:47;;;;;;;19.67;14.40;;;13.60;34.70;;;;;;5081071;28;20105;-70
2021/09/08 04:05:15;;;;;;;16.05;13.90;;;13.60;34.70;;;;;;5084781;28;20105;-70
2021/09/08 04:07:44;;;;;;;19.27;14.77;;;13.60;34.80;;;;;;5078179;28;20071;-70
2021/09/08 04:10:12;;;;;;;19.90;14.55;;;13.50;35.30;;;;;;5080622;28;20136;-70
2021/09/08 04:12:40;;;;;;;16.88;13.75;;;13.40;36.20;;;;;;5084998;28;20131;-70
2021/09/08 04:15:11;;;;;;;19.42;14.15;;;13.40;36.50;;;;;;5066074;28;20040;-70
2021/09/08 04:17:39;;;;;;;18.13;15.13;;;13.40;37.00;;;;;;5073240;28;20127;-70
2021/09/08 04:20:09;;;;;;;18.85;16.05;;;13.40;37.40;;;;;;5081649;28;20588;-70
2021/09/08 04:22:37;;;;;;;18.73;14.85;;;13.40;37.40;;;;;;5078765;28;20055;-70
2021/09/08 04:25:06;;;;;;;20.23;15.18;;;13.40;37.70;;;;;;5079242;28;20082;-70
2021/09/08 04:27:35;;;;;;;18.40;14.25;;;13.40;36.80;;;;;;5074851;28;20048;-70
2021/09/08 04:30:03;;;;;;;19.95;14.75;;;13.40;37.00;;;;;;5081445;28;20044;-70
2021/09/08 04:32:32;;;;;;;20.20;14.73;;;13.40;38.30;;;;;;5078485;28;20050;-70
2021/09/08 04:35:00;;;;;;;18.33;14.52;;;13.40;37.60;;;;;;5080904;28;20048;-70
2021/09/08 04:37:29;;;;;;;23.52;15.95;;;13.50;37.20;;;;;;5074265;28;20040;-70
2021/09/08 04:39:57;;;;;;;21.77;15.10;;;13.50;36.30;;;;;;5077480;28;20508;-70
2021/09/08 04:42:25;;;;;;;20.60;15.75;;;13.60;36.30;;;;;;5082146;28;20080;-70
2021/09/08 04:44:53;;;;;;;22.98;16.48;;;13.60;36.10;;;;;;5077993;28;20122;-70
2021/09/08 04:47:21;;;;;;;23.30;16.75;;;13.70;35.60;;;;;;5077808;28;20079;-70
2021/09/08 04:49:53;;;;;;;22.40;15.43;;;13.70;35.70;;;;;;5080294;28;20131;-70
2021/09/08 04:52:21;;;;;;;22.20;15.95;;;13.60;35.90;;;;;;5080262;28;20125;-70
2021/09/08 04:54:49;;;;;;;20.48;15.98;;;13.60;36.00;;;;;;5082553;28;20040;-71
2021/09/08 04:57:17;;;;;;;24.48;16.20;;;13.60;36.10;;;;;;5072282;28;20515;-70
2021/09/08 04:59:45;;;;;;;22.90;15.52;;;13.60;36.10;;;;;;5081128;28;20534;-70
2021/09/08 05:02:13;;;;;;;19.23;15.68;;;13.70;34.80;;;;;;5080545;28;20052;-69
2021/09/08 05:04:41;;;;;;;19.63;14.82;;;13.70;35.50;;;;;;5080561;28;20458;-69
2021/09/08 05:07:11;;;;;;;22.05;15.85;;;13.80;33.90;;;;;;5050662;28;20043;-70
2021/09/08 05:09:39;;;;;;;22.13;16.20;;;13.90;31.80;;;;;;5082703;28;20060;-69
2021/09/08 05:12:07;;;;;;;19.58;14.60;;;14.30;28.80;;;;;;5080729;28;20067;-70
2021/09/08 05:14:35;;;;;;;19.23;14.10;;;15.20;21.00;;;;;;5082919;28;20059;-69
2021/09/08 05:17:05;;;;;;;23.23;15.68;;;15.80;15.60;;;;;;5075561;28;20152;-69
2021/09/08 05:19:33;;;;;;;19.48;14.68;;;16.30;11.50;;;;;;5079116;28;20051;-71
2021/09/08 05:22:01;;;;;;;17.80;14.18;;;16.60;8.60;;;;;;5077463;28;20105;-71
2021/09/08 05:24:31;;;;;;;18.98;13.80;;;16.40;8.50;;;;;;5080812;28;20135;-71
2021/09/08 05:26:59;;;;;;;18.17;13.80;;;16.70;7.80;;;;;;5074201;28;20082;-71
2021/09/08 05:29:27;;;;;;;19.33;13.80;;;16.70;5.60;;;;;;5082353;28;20044;-69
2021/09/08 05:31:56;;;;;;;17.45;14.07;;;15.80;11.70;;;;;;5080772;28;20507;-69
2021/09/08 05:34:24;;;;;;;18.05;13.75;;;15.50;16.20;;;;;;5079989;28;20266;-69
2021/09/08 05:36:53;;;;;;;20.25;14.02;;;15.30;17.40;;;;;;5074365;28;20071;-69
2021/09/08 05:39:21;;;;;;;18.38;13.13;;;15.20;18.60;;;;;;5077715;28;20488;-70
2021/09/08 05:41:50;;;;;;;20.13;13.75;;;15.20;18.60;;;;;;5080965;28;20040;-70
2021/09/08 05:44:18;;;;;;;19.13;13.32;;;15.20;18.60;;;;;;5077285;28;20105;-70
2021/09/08 05:46:46;;;;;;;19.45;14.13;;;15.30;17.10;;;;;;5071280;28;20064;-70
2021/09/08 05:49:15;;;;;;;18.08;13.30;;;15.50;17.00;;;;;;5076546;28;20040;-70
2021/09/08 05:51:43;;;;;;;18.08;14.00;;;15.60;15.30;;;;;;5078388;28;20406;-70
2021/09/08 05:54:11;;;;;;;21.42;13.50;;;15.60;14.50;;;;;;5078852;28;20101;-70
2021/09/08 05:56:39;;;;;;;20.33;14.68;;;15.70;14.00;;;;;;5075029;28;20184;-70
2021/09/08 05:59:09;;;;;;;19.48;13.35;;;15.80;11.80;;;;;;5079188;28;20101;-70
2021/09/08 06:01:37;;;;;;;18.85;13.82;;;15.90;13.50;;;;;;5078739;28;20075;-70
2021/09/08 06:04:05;;;;;;;19.30;14.38;;;16.00;12.70;;;;;;5078066;28;20052;-69
2021/09/08 06:06:33;;;;;;;18.30;13.15;;;16.00;13.10;;;;;;5075851;28;20048;-69
2021/09/08 06:09:01;;;;;;;19.88;14.10;;;16.10;12.00;;;;;;5074640;28;20466;-71
2021/09/08 06:11:29;;;;;;;20.05;13.85;;;16.10;11.60;;;;;;5077796;28;20408;-71
2021/09/08 06:13:57;;;;;;;17.85;13.48;;;16.00;11.10;;;;;;5082165;28;20040;-70
2021/09/08 06:16:26;;;;;;;19.67;13.55;;;16.20;11.00;;;;;;5074733;28;20044;-70
2021/09/08 06:18:55;;;;;;;18.67;12.77;;;16.30;8.80;;;;;;5074549;28;20056;-71
2021/09/08 06:21:22;;;;;;;38.00;14.13;;;16.30;9.00;;;;;;5080616;28;20048;-71
2021/09/08 06:23:50;;;;;;;19.25;14.00;;;16.40;9.80;;;;;;5080057;28;20048;-71
2021/09/08 06:26:18;;;;;;;17.88;13.20;;;16.50;9.50;;;;;;5079596;28;20040;-70
2021/09/08 06:28:51;;;;;;;16.80;13.52;;;16.50;8.40;;;;;;5074328;28;20130;-72
2021/09/08 06:31:19;;;;;;;16.50;12.80;;;16.60;7.90;;;;;;5078109;28;20090;-70
2021/09/08 06:33:50;;;;;;;18.40;12.98;;;16.80;6.90;;;;;;5078148;28;20085;-71
2021/09/08 06:36:18;;;;;;;20.70;12.82;;;16.90;6.80;;;;;;5074623;28;20048;-71
2021/09/08 06:38:46;;;;;;;15.68;12.23;;;16.80;7.20;;;;;;5076271;28;20059;-71
2021/09/08 06:41:14;;;;;;;19.92;13.32;;;16.90;6.20;;;;;;5082674;28;20053;-71
2021/09/08 06:43:42;;;;;;;15.63;12.48;;;16.70;7.10;;;;;;5083898;28;20591;-70
2021/09/08 06:46:10;;;;;;;19.98;13.05;;;16.80;6.30;;;;;;5079033;28;20097;-70
2021/09/08 06:48:38;;;;;;;19.40;13.45;;;16.70;6.60;;;;;;5076318;28;20040;-70
2021/09/08 06:51:08;;;;;;;18.90;13.70;;;16.80;5.80;;;;;;5081543;28;20275;-69
2021/09/08 06:53:37;;;;;;;18.73;12.27;;;17.10;5.20;;;;;;5080222;28;20186;-71
2021/09/08 06:56:05;;;;;;;19.85;12.05;;;17.30;4.40;;;;;;5079241;28;20113;-71
2021/09/08 06:58:33;;;;;;;16.83;13.13;;;17.50;3.30;;;;;;5078971;28;20055;-71
2021/09/08 07:01:02;;;;;;;17.15;13.27;;;17.60;3.40;;;;;;5085525;28;20127;-70
2021/09/08 07:03:30;;;;;;;17.85;12.55;;;17.60;2.70;;;;;;5082196;28;20052;-70
2021/09/08 07:05:58;;;;;;;19.70;12.95;;;17.70;1.00;;;;;;5086867;28;20042;-70
2021/09/08 07:08:28;;;;;;;17.65;12.65;;;17.30;1.80;;;;;;5063426;28;20114;-70
2021/09/08 07:10:56;;;;;;;17.83;13.00;;;17.40;1.70;;;;;;5061973;28;20037;-69
2021/09/08 07:13:24;;;;;;;17.30;12.73;;;17.70;2.20;;;;;;5066125;28;20036;-69
2021/09/08 07:15:52;;;;;;;18.25;12.75;;;17.70;1.70;;;;;;5064298;28;20055;-69
2021/09/08 07:18:20;;;;;;;16.80;12.63;;;17.90;1.60;;;;;;5074639;28;20076;-70
2021/09/08 07:20:49;;;;;;;15.80;12.43;;;17.80;1.80;;;;;;5049715;28;20051;-70
2021/09/08 07:23:21;;;;;;;16.13;12.32;;;17.90;1.80;;;;;;5076919;28;20036;-70
2021/09/08 07:25:50;;;;;;;15.25;11.77;;;18.10;1.00;;;;;;5084306;28;20060;-69
2021/09/08 07:28:18;;;;;;;17.58;12.23;;;18.10;1.00;;;;;;5082285;28;20044;-70
2021/09/08 07:30:48;;;;;;;18.17;11.93;;;18.20;1.00;;;;;;5081592;28;20052;-69
2021/09/08 07:33:16;;;;;;;14.38;11.25;;;18.40;1.00;;;;;;5081713;28;20052;-70
2021/09/08 07:35:47;;;;;;;20.70;12.20;;;18.40;1.00;;;;;;5081934;28;20043;-69
2021/09/08 07:38:15;;;;;;;14.52;10.48;;;18.40;1.00;;;;;;5057052;28;20114;-70
2021/09/08 07:40:46;;;;;;;16.42;11.45;;;18.60;1.00;;;;;;5067582;28;20055;-69
2021/09/08 07:43:18;;;;;;;15.07;10.63;;;18.70;1.00;;;;;;5084883;28;20131;-70
2021/09/08 07:45:48;;;;;;;12.70;9.80;;;18.80;1.00;;;;;;5087519;28;20071;-70
2021/09/08 07:48:18;;;;;;;13.07;10.48;;;19.00;1.00;;;;;;5084077;28;20060;-70
2021/09/08 07:50:46;;;;;;;17.60;10.70;;;18.90;1.00;;;;;;5082970;28;20450;-70
2021/09/08 07:53:14;;;;;;;14.68;9.88;;;19.00;1.00;;;;;;5086815;28;20048;-70
2021/09/08 07:55:43;;;;;;;14.07;9.38;;;19.10;1.00;;;;;;5085994;28;20119;-71
2021/09/08 07:58:11;;;;;;;13.15;9.23;;;19.10;1.00;;;;;;5084925;28;20460;-70
2021/09/08 08:00:40;;;;;;;10.80;8.98;;;19.40;1.00;;;;;;5088507;28;20172;-71
2021/09/08 08:03:08;;;;;;;11.07;8.07;;;19.70;1.00;;;;;;5089027;28;20143;-71
2021/09/08 08:05:37;;;;;;;14.85;10.35;;;19.80;1.00;;;;;;5083970;28;20575;-70
2021/09/08 08:08:05;;;;;;;12.68;9.27;;;19.70;1.00;;;;;;5085811;28;20052;-70
2021/09/08 08:10:33;;;;;;;12.57;8.80;;;19.70;1.00;;;;;;5087413;28;20032;-70
2021/09/08 08:13:01;;;;;;;11.63;8.98;;;19.70;1.00;;;;;;5084612;28;20453;-70
2021/09/08 08:15:29;;;;;;;10.18;7.38;;;19.60;1.00;;;;;;5088711;28;20083;-70
2021/09/08 08:18:00;;;;;;;10.27;8.25;;;19.70;1.00;;;;;;5080586;28;20075;-70
2021/09/08 08:20:28;;;;;;;9.32;8.20;;;19.70;1.00;;;;;;5084769;28;20447;-70
2021/09/08 08:22:56;;;;;;;9.75;8.20;;;19.90;1.00;;;;;;5086348;28;20048;-68
2021/09/08 08:25:28;;;;;;;11.20;7.72;;;20.00;1.00;;;;;;5070300;28;20048;-69
2021/09/08 08:27:58;;;;;;;11.45;7.55;;;20.10;1.00;;;;;;5086424;28;20077;-71
2021/09/08 08:30:30;;;;;;;11.57;7.85;;;20.30;1.00;;;;;;5050815;28;20048;-69
2021/09/08 08:33:02;;;;;;;12.60;7.95;;;20.40;1.00;;;;;;5046773;28;20037;-70
2021/09/08 08:35:30;;;;;;;10.15;7.32;;;20.50;1.00;;;;;;5069552;28;20048;-70
2021/09/08 08:38:01;;;;;;;9.88;8.13;;;20.90;1.00;;;;;;5070142;28;20037;-69
2021/09/08 08:40:32;;;;;;;11.18;7.82;;;20.70;1.00;;;;;;5065791;28;20040;-69
2021/09/08 08:43:02;;;;;;;11.65;7.68;;;20.60;1.00;;;;;;5064330;28;20041;-70
2021/09/08 08:45:31;;;;;;;9.90;7.47;;;21.00;1.00;;;;;;5064060;28;20461;-70
2021/09/08 08:48:00;;;;;;;10.65;7.88;;;21.10;1.00;;;;;;5082682;28;20105;-70
2021/09/08 08:50:29;;;;;;;11.52;8.68;;;21.10;1.00;;;;;;5075511;28;20079;-70
2021/09/08 08:52:58;;;;;;;9.70;7.97;;;21.00;1.00;;;;;;5075045;28;20121;-70
2021/09/08 08:55:27;;;;;;;12.70;9.65;;;21.10;1.00;;;;;;5064921;28;20084;-70
2021/09/08 08:57:56;;;;;;;13.23;9.18;;;21.00;1.00;;;;;;5083513;28;20044;-70
2021/09/08 09:00:25;;;;;;;13.65;8.75;;;21.10;1.00;;;;;;5083208;28;20040;-69
2021/09/08 09:02:54;;;;;;;11.95;8.23;;;21.00;1.00;;;;;;5085758;28;20052;-69
2021/09/08 09:05:33;;;;;;;13.23;9.50;;;20.90;1.00;;;;;;5084284;28;20165;-69
2021/09/08 09:08:01;;;;;;;11.85;8.70;;;20.90;1.00;;;;;;5070755;28;20504;-69
2021/09/08 09:10:30;;;;;;;10.15;8.55;;;21.00;1.00;;;;;;5066974;28;20052;-70
2021/09/08 09:12:58;;;;;;;15.63;7.93;;;21.40;1.00;;;;;;5085259;28;20044;-70
2021/09/08 09:15:26;;;;;;;10.63;7.85;;;21.40;1.00;;;;;;5081708;28;20045;-70
2021/09/08 09:17:55;;;;;;;11.68;7.75;;;21.60;1.00;;;;;;5083817;28;20076;-70
2021/09/08 09:20:26;;;;;;;10.90;8.55;;;21.90;1.00;;;;;;5075092;28;20664;-70
2021/09/08 09:22:57;;;;;;;9.30;8.18;;;21.60;1.00;;;;;;5065228;28;21190;-70
2021/09/08 09:25:27;;;;;;;9.95;7.78;;;21.60;1.00;;;;;;5064417;28;20048;-70
2021/09/08 09:27:59;;;;;;;9.88;7.38;;;22.00;1.00;;;;;;5045062;28;20405;-70
2021/09/08 09:30:29;;;;;;;11.48;7.93;;;22.00;1.00;;;;;;5064608;28;20052;-69
2021/09/08 09:32:59;;;;;;;10.30;7.50;;;22.10;1.00;;;;;;5064102;28;20044;-71
2021/09/08 09:35:29;;;;;;;15.05;8.15;;;22.30;1.00;;;;;;5069868;28;20040;-70
2021/09/08 09:38:02;;;;;;;15.07;7.80;;;22.20;1.00;;;;;;5062300;28;20500;-69
2021/09/08 09:40:31;;;;;;;11.85;7.35;;;22.20;1.00;;;;;;5073758;28;20560;-70
2021/09/08 09:43:04;;;;;;;12.07;8.23;;;22.20;1.00;;;;;;5083476;28;20149;-70
2021/09/08 09:45:34;;;;;;;11.88;8.27;;;22.60;1.00;;;;;;5084129;28;20415;-70
2021/09/08 09:48:03;;;;;;;9.95;7.22;;;22.70;1.00;;;;;;5082359;28;20464;-69
2021/09/08 09:50:33;;;;;;;13.55;7.32;;;22.50;1.00;;;;;;5085657;28;20048;-71
2021/09/08 09:53:03;;;;;;;8.98;6.80;;;22.50;1.00;;;;;;5066682;28;20040;-69
2021/09/08 09:55:31;;;;;;;10.43;7.03;;;22.90;1.00;;;;;;5083948;28;20043;-71
2021/09/08 09:57:59;;;;;;;8.45;6.45;;;23.10;1.00;;;;;;5083677;28;20047;-70
2021/09/08 10:00:28;;;;;;;8.88;6.90;;;23.30;1.00;;;;;;5083795;28;20052;-70
2021/09/08 10:02:57;;;;;;;11.15;6.63;;;23.50;1.00;;;;;;5084115;28;20040;-71
2021/09/08 10:05:25;;;;;;;8.13;6.60;;;23.80;1.00;;;;;;5084682;28;20427;-71
2021/09/08 10:07:54;;;;;;;11.38;6.70;;;23.40;1.00;;;;;;5081249;28;20148;-70
2021/09/08 10:10:29;;;;;;;8.20;6.50;;;23.30;1.00;;;;;;5083519;28;20036;-70
2021/09/08 10:13:00;;;;;;;10.43;7.22;;;23.80;1.00;;;;;;5090023;28;20044;-71
2021/09/08 10:15:32;;;;;;;9.10;6.53;;;23.70;1.00;;;;;;5070933;28;20047;-70
2021/09/08 10:18:10;;;;;;;9.75;6.78;;;23.50;1.00;;;;;;5085507;28;20059;-71
2021/09/08 10:20:38;;;;;;;8.35;6.68;;;23.10;1.00;;;;;;5085004;28;20547;-70
2021/09/08 10:23:08;;;;;;;10.40;6.70;;;23.10;1.00;;;;;;5088452;28;20040;-69
2021/09/08 10:25:38;;;;;;;8.93;6.10;;;23.20;1.00;;;;;;5084393;28;20621;-70
2021/09/08 10:28:06;;;;;;;8.35;6.15;;;23.30;1.00;;;;;;5087336;27;20132;-70
2021/09/08 10:30:39;;;;;;;10.07;6.40;;;23.50;1.00;;;;;;5089861;28;20119;-71
2021/09/08 10:33:09;;;;;;;7.13;5.60;;;24.00;1.00;;;;;;5087731;28;20140;-70
2021/09/08 10:35:40;;;;;;;7.32;6.55;;;24.20;1.00;;;;;;5083401;28;20048;-71
2021/09/08 10:38:12;;;;;;;8.10;6.63;;;24.10;1.00;;;;;;5087644;28;20048;-71
2021/09/08 10:40:43;;;;;;;7.90;6.45;;;24.20;1.00;;;;;;5087129;28;20056;-69
2021/09/08 10:43:11;;;;;;;10.73;6.22;;;24.40;1.00;;;;;;5089786;28;20055;-70
2021/09/08 10:45:50;;;;;;;9.88;6.90;;;24.10;1.00;;;;;;5086801;28;20070;-70
2021/09/08 10:48:37;;;;;;;9.43;6.10;;;24.20;1.00;;;;;;5057361;28;20080;-70
2021/09/08 10:51:05;;;;;;;8.30;6.53;;;24.20;1.00;;;;;;5068765;28;20072;-70
2021/09/08 10:53:35;;;;;;;7.88;6.38;;;24.50;1.00;;;;;;5087205;28;20056;-71
2021/09/08 10:56:07;;;;;;;11.05;6.97;;;24.30;1.00;;;;;;5086292;28;20052;-70
2021/09/08 10:58:54;;;;;;;7.70;6.45;;;24.40;1.00;;;;;;5085185;28;20056;-71
2021/09/08 11:01:22;;;;;;;9.25;5.97;;;24.40;1.00;;;;;;5069769;28;20083;-71
2021/09/08 11:03:51;;;;;;;9.13;6.13;;;24.80;1.00;;;;;;5085169;28;20052;-70
2021/09/08 11:06:43;;;;;;;8.45;6.63;;;24.70;1.00;;;;;;5084878;28;20649;-71
2021/09/08 11:09:15;;;;;;;6.97;6.18;;;24.50;1.00;;;;;;5069367;28;20484;-71
2021/09/08 11:11:52;;;;;;;8.85;6.28;;;24.10;1.00;;;;;;5072274;28;20040;-70
2021/09/08 11:14:21;;;;;;;11.45;6.30;;;24.30;1.00;;;;;;5087056;28;20048;-70
2021/09/08 11:16:49;;;;;;;9.35;6.35;;;24.70;1.00;;;;;;5082232;28;20093;-71
2021/09/08 11:19:17;;;;;;;8.88;6.10;;;25.00;1.00;;;;;;5087068;28;20055;-71
2021/09/08 11:21:45;;;;;;;7.35;5.97;;;25.30;1.00;;;;;;5084214;28;20545;-71
2021/09/08 11:24:14;;;;;;;7.35;5.78;;;25.00;1.00;;;;;;5089347;28;20109;-70
2021/09/08 11:26:43;;;;;;;7.90;5.80;;;25.10;1.00;;;;;;5068614;28;20046;-71
2021/09/08 11:29:14;;;;;;;7.80;6.15;;;25.10;1.00;;;;;;5086566;28;20048;-71
2021/09/08 11:31:43;;;;;;;8.88;5.28;;;25.30;1.00;;;;;;5088334;28;20048;-70
2021/09/08 11:34:19;;;;;;;6.20;5.22;;;25.60;1.00;;;;;;5088083;28;20048;-70
2021/09/08 11:36:50;;;;;;;9.60;6.05;;;25.70;1.00;;;;;;5084147;28;20138;-70
2021/09/08 11:39:19;;;;;;;9.45;5.40;;;25.70;1.00;;;;;;5089136;28;20131;-69
2021/09/08 11:41:55;;;;;;;7.45;5.70;;;25.50;1.00;;;;;;5087770;28;20191;-70
2021/09/08 11:44:25;;;;;;;7.18;5.63;;;25.40;1.00;;;;;;5087839;28;20051;-71
2021/09/08 11:46:53;;;;;;;5.75;5.03;;;25.70;1.00;;;;;;5080763;28;20047;-70
2021/09/08 11:49:22;;;;;;;8.10;5.60;;;25.70;1.00;;;;;;5083199;28;20044;-70
2021/09/08 11:51:50;;;;;;;7.18;5.82;;;25.50;1.00;;;;;;5087875;28;20055;-70
2021/09/08 11:54:20;;;;;;;7.13;5.65;;;25.60;1.00;;;;;;5089240;28;20503;-70
2021/09/08 11:56:55;;;;;;;6.80;5.68;;;25.80;1.00;;;;;;5084753;28;20052;-71
2021/09/08 11:59:31;;;;;;;7.28;5.50;;;25.80;1.00;;;;;;5085602;28;20086;-70
2021/09/08 12:01:59;;;;;;;7.30;5.50;;;25.80;1.00;;;;;;5087861;28;20135;-70
2021/09/08 12:04:29;;;;;;;9.02;5.55;;;25.90;1.00;;;;;;5085914;28;20044;-70
2021/09/08 12:07:00;;;;;;;7.22;4.95;;;26.10;1.00;;;;;;5084452;28;20059;-71
2021/09/08 12:09:29;;;;;;;6.28;5.13;;;25.90;1.00;;;;;;5078458;28;20084;-71
2021/09/08 12:11:58;;;;;;;6.30;4.65;;;26.00;1.00;;;;;;5082557;28;20127;-71
2021/09/08 12:14:39;;;;;;;5.68;4.85;;;26.00;1.00;;;;;;5079713;28;20650;-69
2021/09/08 12:17:19;;;;;;;9.50;5.35;;;26.10;1.00;;;;;;5085209;28;20055;-70
2021/09/08 12:19:54;;;;;;;6.25;5.03;;;25.70;1.00;;;;;;5069068;28;20051;-70
2021/09/08 12:22:24;;;;;;;6.85;4.93;;;25.70;1.00;;;;;;5086254;28;20067;-70
2021/09/08 12:24:55;;;;;;;6.72;5.35;;;26.00;1.00;;;;;;5087348;28;20460;-69
2021/09/08 12:27:35;;;;;;;7.15;5.38;;;26.10;1.00;;;;;;5082971;28;20052;-69
2021/09/08 12:30:10;;;;;;;5.53;4.95;;;26.30;1.00;;;;;;5082343;28;20055;-70
2021/09/08 12:33:02;;;;;;;7.13;5.13;;;26.50;1.00;;;;;;5086312;28;20453;-70
2021/09/08 12:35:40;;;;;;;8.80;5.57;;;26.20;1.00;;;;;;5064325;28;20507;-70
2021/09/08 12:38:30;;;;;;;7.40;4.90;;;26.10;1.00;;;;;;5086336;28;20048;-69
2021/09/08 12:41:16;;;;;;;7.15;5.07;;;26.00;1.00;;;;;;5083986;28;20048;-69
2021/09/08 12:43:47;;;;;;;6.75;5.00;;;26.10;1.00;;;;;;5086624;28;20063;-70
2021/09/08 12:46:17;;;;;;;5.90;4.93;;;26.20;1.00;;;;;;5082391;28;20105;-70
2021/09/08 12:48:46;;;;;;;9.18;5.15;;;26.10;1.00;;;;;;5087339;28;20048;-69
2021/09/08 12:51:14;;;;;;;6.28;5.10;;;26.20;1.00;;;;;;5087344;28;20097;-70